createdAt,value
2019-03-01T00:01:23.975Z,92.76
2019-03-01T00:03:55.329Z,93.33
2019-03-01T00:06:28.116Z,92.83
2019-03-01T00:09:32.561Z,93.22
2019-03-01T00:12:14.862Z,92.78
2019-03-01T00:15:11.486Z,92.83
2019-03-01T00:18:06.118Z,93.33
2019-03-01T00:20:55.141Z,92.94
2019-03-01T00:23:51.607Z,93.98
2019-03-01T00:26:34.608Z,93.40
2019-03-01T00:29:27.987Z,92.65
2019-03-01T00:32:21.238Z,94.03
2019-03-01T00:34:57.089Z,93.95
2019-03-01T00:37:58.562Z,92.92
2019-03-01T00:40:51.151Z,91.05
2019-03-01T00:43:45.826Z,92.62
2019-03-01T00:46:12.554Z,93.26
2019-03-01T00:48:39.305Z,94.25
2019-03-01T00:51:06.043Z,93.73
2019-03-01T00:53:32.772Z,92.90
2019-03-01T00:55:59.627Z,93.24
2019-03-01T00:58:26.337Z,93.53
2019-03-01T01:00:53.076Z,92.88
2019-03-01T01:03:19.801Z,92.81
2019-03-01T01:05:46.521Z,92.82
2019-03-01T01:08:13.266Z,93.53
2019-03-01T01:10:39.983Z,92.41
2019-03-01T01:13:06.730Z,92.73
2019-03-01T01:15:33.450Z,93.26
2019-03-01T01:18:00.178Z,93.31
2019-03-01T01:20:27.141Z,93.68
2019-03-01T01:22:53.860Z,94.39
2019-03-01T01:25:20.718Z,94.75
2019-03-01T01:27:47.455Z,94.90
2019-03-01T01:30:14.195Z,94.33
2019-03-01T01:32:40.938Z,94.35
2019-03-01T01:35:07.668Z,94.17
2019-03-01T01:37:34.458Z,94.50
2019-03-01T01:40:01.177Z,93.96
2019-03-01T01:42:27.922Z,93.58
2019-03-01T01:44:54.647Z,92.83
2019-03-01T01:47:21.395Z,92.64
2019-03-01T01:49:48.102Z,94.46
2019-03-01T01:52:14.848Z,94.00
2019-03-01T01:54:41.579Z,94.76
2019-03-01T01:57:08.310Z,95.02
2019-03-01T01:59:35.058Z,95.22
2019-03-01T02:02:01.797Z,95.78
2019-03-01T02:04:28.505Z,95.05
2019-03-01T02:06:55.242Z,94.94
2019-03-01T02:09:23.706Z,94.84
2019-03-01T02:11:50.439Z,94.38
2019-03-01T02:14:17.175Z,93.06
2019-03-01T02:16:43.883Z,93.39
2019-03-01T02:19:10.626Z,94.55
2019-03-01T02:21:37.362Z,95.43
2019-03-01T02:24:04.115Z,95.62
2019-03-01T02:26:30.840Z,95.09
2019-03-01T02:28:57.577Z,94.41
2019-03-01T02:31:24.302Z,93.80
2019-03-01T02:33:51.061Z,94.15
2019-03-01T02:36:17.763Z,94.32
2019-03-01T02:38:44.535Z,94.97
2019-03-01T02:41:11.465Z,94.16
2019-03-01T02:43:38.204Z,93.52
2019-03-01T02:46:04.934Z,93.54
2019-03-01T02:48:31.658Z,93.47
2019-03-01T02:50:58.379Z,93.38
2019-03-01T02:53:25.119Z,93.32
2019-03-01T02:55:51.829Z,93.88
2019-03-01T02:58:18.564Z,93.48
2019-03-01T03:00:45.300Z,92.54
2019-03-01T03:03:12.032Z,92.58
2019-03-01T03:05:54.096Z,93.56
2019-03-01T03:08:20.827Z,93.19
2019-03-01T03:10:47.554Z,93.11
2019-03-01T03:13:14.295Z,93.78
2019-03-01T03:15:43.000Z,93.08
2019-03-01T03:18:09.743Z,92.75
2019-03-01T03:20:36.462Z,93.05
2019-03-01T03:23:03.219Z,91.66
2019-03-01T03:25:29.948Z,91.33
2019-03-01T03:27:56.682Z,89.49
2019-03-01T03:30:23.433Z,90.19
2019-03-01T03:32:50.124Z,91.17
2019-03-01T03:35:16.993Z,91.80
2019-03-01T03:37:43.714Z,91.46
2019-03-01T03:40:10.500Z,92.12
2019-03-01T03:42:37.223Z,92.48
2019-03-01T03:45:04.502Z,91.96
2019-03-01T03:47:31.247Z,91.93
2019-03-01T03:49:57.978Z,92.39
2019-03-01T03:52:24.711Z,92.38
2019-03-01T03:54:51.438Z,92.07
2019-03-01T03:57:18.152Z,92.87
2019-03-01T03:59:44.989Z,92.91
2019-03-01T04:02:11.706Z,93.43
2019-03-01T04:04:38.447Z,92.18
2019-03-01T04:07:05.210Z,92.73
2019-03-01T04:09:31.898Z,92.79
2019-03-01T04:11:58.618Z,92.54
2019-03-01T04:14:25.403Z,92.10
2019-03-01T04:16:52.102Z,91.88
2019-03-01T04:19:18.846Z,91.58
2019-03-01T04:21:46.563Z,91.71
2019-03-01T04:24:13.318Z,91.55
2019-03-01T04:26:40.043Z,91.92
2019-03-01T04:29:06.792Z,91.59
2019-03-01T04:31:33.518Z,92.14
2019-03-01T04:34:00.245Z,92.05
2019-03-01T04:36:26.970Z,92.34
2019-03-01T04:38:53.722Z,91.61
2019-03-01T04:41:20.439Z,92.34
2019-03-01T04:43:47.209Z,92.17
2019-03-01T04:46:13.913Z,91.28
2019-03-01T04:48:40.622Z,91.50
2019-03-01T04:51:07.370Z,91.35
2019-03-01T04:53:34.089Z,91.77
2019-03-01T04:56:00.818Z,91.99
2019-03-01T04:58:27.558Z,91.45
2019-03-01T05:00:54.290Z,91.96
2019-03-01T05:03:21.050Z,91.90
2019-03-01T05:05:47.777Z,91.55
2019-03-01T05:08:14.523Z,90.84
2019-03-01T05:10:41.242Z,90.22
2019-03-01T05:13:07.982Z,91.35
2019-03-01T05:15:34.705Z,90.63
2019-03-01T05:18:01.454Z,91.05
2019-03-01T05:20:30.508Z,91.71
2019-03-01T05:22:54.918Z,91.50
2019-03-01T05:25:21.632Z,92.75
2019-03-01T05:27:48.459Z,90.71
2019-03-01T05:30:15.195Z,90.67
2019-03-01T05:32:41.937Z,90.66
2019-03-01T05:35:08.678Z,90.87
2019-03-01T05:37:35.430Z,91.36
2019-03-01T05:40:02.151Z,91.79
2019-03-01T05:42:28.894Z,92.06
2019-03-01T05:44:55.610Z,91.20
2019-03-01T05:47:22.366Z,91.54
2019-03-01T05:49:49.110Z,91.72
2019-03-01T05:52:15.855Z,90.66
2019-03-01T05:54:42.590Z,90.62
2019-03-01T05:57:09.334Z,90.76
2019-03-01T05:59:36.071Z,92.81
2019-03-01T06:02:23.934Z,92.92
2019-03-01T06:04:54.902Z,94.12
2019-03-01T06:07:58.154Z,94.02
2019-03-01T06:10:35.481Z,94.22
2019-03-01T06:13:34.485Z,95.12
2019-03-01T06:16:16.473Z,94.99
2019-03-01T06:19:11.331Z,94.23
2019-03-01T06:21:51.022Z,94.92
2019-03-01T06:24:30.302Z,95.21
2019-03-01T06:27:18.418Z,95.79
2019-03-01T06:30:08.202Z,96.39
2019-03-01T06:32:48.766Z,96.31
2019-03-01T06:35:32.534Z,95.10
2019-03-01T06:39:00.666Z,95.00
2019-03-01T06:41:53.921Z,94.40
2019-03-01T06:44:31.168Z,94.66
2019-03-01T06:47:07.270Z,92.90
2019-03-01T06:49:39.798Z,92.23
2019-03-01T06:52:06.530Z,94.19
2019-03-01T06:54:33.269Z,95.19
2019-03-01T06:57:00.106Z,95.46
2019-03-01T06:59:26.859Z,94.97
2019-03-01T07:01:53.586Z,95.84
2019-03-01T07:04:21.020Z,96.54
2019-03-01T07:06:47.729Z,97.00
2019-03-01T07:09:14.483Z,97.41
2019-03-01T07:11:41.195Z,96.81
2019-03-01T07:14:07.946Z,98.53
2019-03-01T07:16:34.655Z,98.30
2019-03-01T07:19:01.414Z,99.13
2019-03-01T07:21:28.130Z,100.00
2019-03-01T07:23:54.932Z,100.00
2019-03-01T07:26:21.602Z,100.00
2019-03-01T07:28:48.346Z,100.00
2019-03-01T07:31:15.075Z,100.00
2019-03-01T07:33:41.818Z,100.00
2019-03-01T07:36:08.530Z,99.64
2019-03-01T07:38:35.270Z,96.88
2019-03-01T07:41:01.986Z,96.71
2019-03-01T07:43:28.739Z,94.97
2019-03-01T07:45:55.458Z,93.46
2019-03-01T07:48:22.206Z,92.87
2019-03-01T07:50:48.950Z,93.50
2019-03-01T07:53:15.693Z,94.27
2019-03-01T07:55:44.016Z,93.85
2019-03-01T07:58:09.127Z,94.19
2019-03-01T08:00:35.862Z,94.34
2019-03-01T08:03:02.589Z,93.45
2019-03-01T08:05:29.335Z,92.80
2019-03-01T08:07:59.664Z,92.59
2019-03-01T08:10:23.372Z,92.00
2019-03-01T08:12:49.514Z,91.80
2019-03-01T08:15:16.265Z,91.58
2019-03-01T08:17:43.031Z,91.76
2019-03-01T08:20:11.721Z,91.47
2019-03-01T08:22:48.129Z,89.68
2019-03-01T08:25:06.121Z,90.80
2019-03-01T08:27:32.831Z,91.04
2019-03-01T08:29:59.566Z,89.76
2019-03-01T08:32:27.367Z,88.99
2019-03-01T08:34:53.760Z,89.33
2019-03-01T08:37:19.771Z,88.23
2019-03-01T08:39:46.567Z,89.05
2019-03-01T08:42:13.283Z,87.66
2019-03-01T08:44:40.022Z,89.02
2019-03-01T08:47:06.778Z,88.17
2019-03-01T08:49:33.543Z,88.26
2019-03-01T08:52:01.525Z,88.07
2019-03-01T08:54:27.641Z,87.43
2019-03-01T08:56:53.738Z,86.16
2019-03-01T08:59:20.481Z,86.86
2019-03-01T09:01:47.194Z,87.15
2019-03-01T09:04:17.337Z,86.64
2019-03-01T09:06:41.721Z,86.69
2019-03-01T09:09:08.688Z,88.11
2019-03-01T09:11:34.241Z,87.50
2019-03-01T09:14:00.982Z,87.13
2019-03-01T09:16:27.709Z,88.77
2019-03-01T09:18:54.466Z,87.61
2019-03-01T09:21:21.188Z,86.66
2019-03-01T09:23:51.107Z,86.60
2019-03-01T09:26:16.738Z,87.71
2019-03-01T09:28:41.373Z,88.94
2019-03-01T09:31:08.111Z,88.62
2019-03-01T09:33:34.838Z,87.51
2019-03-01T09:36:07.606Z,88.61
2019-03-01T09:38:34.318Z,87.66
2019-03-01T09:41:04.079Z,88.33
2019-03-01T09:43:28.535Z,87.76
2019-03-01T09:45:54.579Z,88.27
2019-03-01T09:48:21.286Z,88.32
2019-03-01T09:50:48.030Z,89.37
2019-03-01T09:53:14.801Z,88.07
2019-03-01T09:55:41.530Z,88.46
2019-03-01T09:58:08.620Z,88.74
2019-03-01T10:00:35.624Z,86.78
2019-03-01T10:03:02.363Z,86.62
2019-03-01T10:05:29.102Z,87.04
2019-03-01T10:07:55.818Z,86.65
2019-03-01T10:10:24.630Z,86.79
2019-03-01T10:12:51.352Z,86.36
2019-03-01T10:15:18.091Z,85.81
2019-03-01T10:17:44.814Z,85.73
2019-03-01T10:20:11.606Z,83.24
2019-03-01T10:22:38.322Z,82.47
2019-03-01T10:25:05.533Z,83.98
2019-03-01T10:27:32.249Z,84.15
2019-03-01T10:29:58.970Z,83.87
2019-03-01T10:32:25.702Z,83.77
2019-03-01T10:34:52.410Z,82.47
2019-03-01T10:37:19.681Z,82.57
2019-03-01T10:39:52.810Z,83.04
2019-03-01T10:42:13.146Z,82.27
2019-03-01T10:44:39.862Z,81.36
2019-03-01T10:47:06.586Z,81.63
2019-03-01T10:49:33.308Z,82.09
2019-03-01T10:52:00.042Z,80.94
2019-03-01T10:54:26.760Z,82.50
2019-03-01T10:56:53.486Z,82.71
2019-03-01T10:59:20.210Z,81.87
2019-03-01T11:01:46.946Z,82.18
2019-03-01T11:04:13.666Z,82.01
2019-03-01T11:06:40.414Z,81.41
2019-03-01T11:09:07.170Z,82.50
2019-03-01T11:11:34.028Z,81.32
2019-03-01T11:14:00.758Z,81.94
2019-03-01T11:16:27.565Z,82.56
2019-03-01T11:18:54.285Z,82.54
2019-03-01T11:21:21.026Z,81.48
2019-03-01T11:23:47.771Z,82.95
2019-03-01T11:26:14.498Z,80.78
2019-03-01T11:28:41.210Z,80.29
2019-03-01T11:31:07.946Z,80.32
2019-03-01T11:33:34.677Z,80.03
2019-03-01T11:36:01.435Z,80.30
2019-03-01T11:38:28.150Z,80.14
2019-03-01T11:40:55.918Z,80.07
2019-03-01T11:43:21.604Z,79.37
2019-03-01T11:45:48.317Z,79.51
2019-03-01T11:48:15.089Z,78.44
2019-03-01T11:50:41.818Z,77.66
2019-03-01T11:53:08.549Z,78.22
2019-03-01T11:55:35.258Z,78.51
2019-03-01T11:58:01.982Z,76.73
2019-03-01T12:00:28.703Z,76.21
2019-03-01T12:02:55.435Z,76.22
2019-03-01T12:05:22.169Z,76.10
2019-03-01T12:07:48.914Z,76.87
2019-03-01T12:10:19.390Z,78.10
2019-03-01T12:12:46.123Z,77.93
2019-03-01T12:15:12.867Z,77.83
2019-03-01T12:17:39.602Z,77.17
2019-03-01T12:20:08.503Z,77.96
2019-03-01T12:22:35.266Z,78.50
2019-03-01T12:25:01.987Z,77.46
2019-03-01T12:27:28.802Z,76.95
2019-03-01T12:29:55.522Z,76.06
2019-03-01T12:32:22.255Z,76.86
2019-03-01T12:34:49.000Z,76.84
2019-03-01T12:37:15.730Z,76.55
2019-03-01T12:39:42.458Z,76.32
2019-03-01T12:42:09.193Z,75.57
2019-03-01T12:44:35.910Z,75.31
2019-03-01T12:47:02.683Z,74.09
2019-03-01T12:49:29.410Z,73.02
2019-03-01T12:51:56.142Z,72.64
2019-03-01T12:54:22.862Z,71.17
2019-03-01T12:56:49.593Z,70.38
2019-03-01T12:59:16.330Z,70.39
2019-03-01T13:01:43.070Z,71.20
2019-03-01T13:04:09.786Z,71.12
2019-03-01T13:06:38.990Z,72.41
2019-03-01T13:09:05.875Z,70.51
2019-03-01T13:11:32.597Z,69.37
2019-03-01T13:13:59.334Z,69.94
2019-03-01T13:16:26.745Z,69.76
2019-03-01T13:18:52.805Z,68.77
2019-03-01T13:21:19.524Z,68.58
2019-03-01T13:23:46.273Z,70.04
2019-03-01T13:26:13.002Z,68.63
2019-03-01T13:28:39.761Z,69.38
2019-03-01T13:31:08.252Z,68.99
2019-03-01T13:33:34.835Z,69.83
2019-03-01T13:36:03.297Z,70.17
2019-03-01T13:38:26.687Z,70.12
2019-03-01T13:40:54.237Z,70.24
2019-03-01T13:43:20.147Z,72.22
2019-03-01T13:45:47.423Z,71.30
2019-03-01T13:48:15.698Z,73.20
2019-03-01T13:50:41.496Z,73.02
2019-03-01T13:53:07.150Z,75.15
2019-03-01T13:55:33.966Z,74.82
2019-03-01T13:58:00.806Z,75.57
2019-03-01T14:00:27.521Z,77.55
2019-03-01T14:02:54.254Z,76.57
2019-03-01T14:05:20.962Z,79.04
2019-03-01T14:07:47.705Z,79.14
2019-03-01T14:10:16.323Z,80.75
2019-03-01T14:12:43.054Z,81.91
2019-03-01T14:15:11.836Z,82.92
2019-03-01T14:17:38.567Z,84.06
2019-03-01T14:20:07.610Z,83.07
2019-03-01T14:22:34.350Z,82.97
2019-03-01T14:25:02.346Z,83.19
2019-03-01T14:27:29.499Z,81.20
2019-03-01T14:29:54.626Z,81.26
2019-03-01T14:32:21.923Z,80.71
2019-03-01T14:34:48.783Z,80.35
2019-03-01T14:37:15.190Z,79.76
2019-03-01T14:39:42.106Z,80.99
2019-03-01T14:42:10.944Z,81.53
2019-03-01T14:44:34.974Z,80.25
2019-03-01T14:47:01.765Z,79.93
2019-03-01T14:49:28.503Z,79.73
2019-03-01T14:51:55.233Z,78.52
2019-03-01T14:54:21.970Z,78.26
2019-03-01T14:56:53.278Z,77.54
2019-03-01T14:59:24.133Z,78.83
2019-03-01T15:02:03.161Z,77.58
2019-03-01T15:04:28.971Z,78.08
2019-03-01T15:06:55.076Z,77.30
2019-03-01T15:09:20.435Z,77.60
2019-03-01T15:11:48.807Z,78.33
2019-03-01T15:14:13.784Z,78.13
2019-03-01T15:16:43.300Z,77.85
2019-03-01T15:19:08.077Z,77.84
2019-03-01T15:21:34.015Z,78.36
2019-03-01T15:24:01.459Z,77.97
2019-03-01T15:26:27.961Z,78.35
2019-03-01T15:28:55.894Z,77.36
2019-03-01T15:31:21.927Z,77.78
2019-03-01T15:33:48.683Z,78.31
2019-03-01T15:36:17.885Z,78.62
2019-03-01T15:38:42.126Z,77.91
2019-03-01T15:41:08.855Z,78.20
2019-03-01T15:43:35.605Z,78.69
2019-03-01T15:46:02.314Z,77.24
2019-03-01T15:48:29.050Z,78.10
2019-03-01T15:50:59.093Z,77.32
2019-03-01T15:53:25.031Z,77.66
2019-03-01T15:55:50.534Z,77.24
2019-03-01T15:58:17.242Z,77.40
2019-03-01T16:00:43.973Z,77.29
2019-03-01T16:03:10.698Z,76.72
2019-03-01T16:05:38.251Z,76.44
2019-03-01T16:08:05.544Z,77.18
2019-03-01T16:10:32.966Z,77.27
2019-03-01T16:12:57.701Z,77.72
2019-03-01T16:15:24.557Z,77.41
2019-03-01T16:17:51.277Z,78.70
2019-03-01T16:20:18.014Z,79.26
2019-03-01T16:22:44.730Z,79.91
2019-03-01T16:25:11.926Z,80.25
2019-03-01T16:27:38.774Z,80.73
2019-03-01T16:30:07.924Z,82.00
2019-03-01T16:32:34.646Z,82.09
2019-03-01T16:35:01.383Z,81.82
2019-03-01T16:37:28.404Z,81.40
2019-03-01T16:39:56.224Z,81.07
2019-03-01T16:42:21.850Z,82.55
2019-03-01T16:44:48.595Z,82.83
2019-03-01T16:47:15.302Z,82.86
2019-03-01T16:49:42.030Z,81.87
2019-03-01T16:52:08.750Z,82.14
2019-03-01T16:54:35.502Z,82.18
2019-03-01T16:57:02.210Z,80.75
2019-03-01T16:59:29.001Z,81.34
2019-03-01T17:01:55.667Z,80.92
2019-03-01T17:04:27.110Z,81.06
2019-03-01T17:06:50.264Z,82.02
2019-03-01T17:09:16.630Z,82.41
2019-03-01T17:11:42.570Z,81.08
2019-03-01T17:14:09.297Z,81.46
2019-03-01T17:16:36.058Z,82.32
2019-03-01T17:19:02.861Z,81.94
2019-03-01T17:21:29.636Z,81.98
2019-03-01T17:23:56.383Z,81.61
2019-03-01T17:26:26.242Z,82.39
2019-03-01T17:28:49.945Z,81.15
2019-03-01T17:31:16.578Z,81.06
2019-03-01T17:33:45.195Z,82.10
2019-03-01T17:36:13.024Z,82.29
2019-03-01T17:38:36.805Z,81.47
2019-03-01T17:41:06.223Z,82.24
2019-03-01T17:43:32.802Z,83.04
2019-03-01T17:45:57.952Z,82.19
2019-03-01T17:48:23.869Z,81.53
2019-03-01T17:50:50.611Z,82.50
2019-03-01T17:53:17.342Z,82.57
2019-03-01T17:55:44.086Z,82.92
2019-03-01T17:58:10.918Z,83.51
2019-03-01T18:00:37.677Z,83.91
2019-03-01T18:03:04.402Z,83.95
2019-03-01T18:05:31.145Z,83.79
2019-03-01T18:07:59.843Z,83.96
2019-03-01T18:10:24.717Z,83.89
2019-03-01T18:12:53.135Z,83.38
2019-03-01T18:15:18.227Z,83.75
2019-03-01T18:17:45.671Z,83.47
2019-03-01T18:20:12.405Z,84.49
2019-03-01T18:22:39.146Z,84.27
2019-03-01T18:25:07.278Z,85.16
2019-03-01T18:27:34.018Z,85.17
2019-03-01T18:30:00.736Z,86.34
2019-03-01T18:32:27.475Z,86.40
2019-03-01T18:34:54.199Z,86.48
2019-03-01T18:37:20.931Z,86.58
2019-03-01T18:39:47.657Z,86.15
2019-03-01T18:42:14.395Z,86.37
2019-03-01T18:44:41.120Z,86.08
2019-03-01T18:47:07.881Z,85.09
2019-03-01T18:49:34.702Z,85.03
2019-03-01T18:52:01.449Z,85.24
2019-03-01T18:54:28.294Z,85.50
2019-03-01T18:56:55.034Z,85.05
2019-03-01T18:59:24.831Z,85.74
2019-03-01T19:01:48.490Z,84.56
2019-03-01T19:04:16.714Z,85.52
2019-03-01T19:06:42.034Z,86.16
2019-03-01T19:09:08.774Z,86.06
2019-03-01T19:11:37.940Z,85.26
2019-03-01T19:14:02.687Z,85.20
2019-03-01T19:16:29.445Z,84.48
2019-03-01T19:18:55.762Z,84.57
2019-03-01T19:21:22.496Z,83.63
2019-03-01T19:23:49.217Z,84.07
2019-03-01T19:26:16.022Z,82.61
2019-03-01T19:28:42.739Z,82.27
2019-03-01T19:31:09.462Z,81.80
2019-03-01T19:33:37.887Z,82.68
2019-03-01T19:36:03.544Z,81.35
2019-03-01T19:38:29.650Z,81.73
2019-03-01T19:40:56.450Z,79.42
2019-03-01T19:43:23.182Z,80.34
2019-03-01T19:45:49.897Z,80.46
2019-03-01T19:48:16.638Z,81.31
2019-03-01T19:50:43.635Z,82.88
2019-03-01T19:53:10.138Z,81.79
2019-03-01T19:55:36.914Z,83.05
2019-03-01T19:58:03.702Z,83.13
2019-03-01T20:00:30.466Z,83.21
2019-03-01T20:02:57.210Z,84.06
2019-03-01T20:05:27.914Z,84.01
2019-03-01T20:07:51.771Z,84.63
2019-03-01T20:10:18.249Z,84.79
2019-03-01T20:12:44.981Z,84.90
2019-03-01T20:15:14.109Z,84.93
2019-03-01T20:17:44.389Z,85.37
2019-03-01T20:20:09.082Z,85.75
2019-03-01T20:22:35.806Z,85.22
2019-03-01T20:25:02.665Z,85.41
2019-03-01T20:27:29.394Z,85.15
2019-03-01T20:29:56.122Z,85.22
2019-03-01T20:32:22.927Z,85.34
2019-03-01T20:34:49.665Z,85.30
2019-03-01T20:37:16.386Z,85.32
2019-03-01T20:39:43.122Z,86.32
2019-03-01T20:42:09.850Z,86.09
2019-03-01T20:44:36.570Z,86.33
2019-03-01T20:47:03.294Z,86.33
2019-03-01T20:49:30.031Z,86.07
2019-03-01T20:51:58.694Z,86.47
2019-03-01T20:54:25.816Z,87.28
2019-03-01T20:56:51.628Z,87.46
2019-03-01T20:59:17.262Z,86.03
2019-03-01T21:01:43.998Z,86.25
2019-03-01T21:04:10.742Z,86.50
2019-03-01T21:06:40.441Z,86.75
2019-03-01T21:09:06.783Z,87.63
2019-03-01T21:11:31.250Z,87.84
2019-03-01T21:13:58.022Z,87.88
2019-03-01T21:16:24.773Z,87.68
2019-03-01T21:18:51.509Z,87.76
2019-03-01T21:21:18.326Z,87.98
2019-03-01T21:23:47.643Z,87.62
2019-03-01T21:26:12.094Z,87.72
2019-03-01T21:28:38.574Z,87.27
2019-03-01T21:31:05.301Z,87.00
2019-03-01T21:33:32.046Z,87.22
2019-03-01T21:35:58.819Z,87.30
2019-03-01T21:38:25.554Z,88.03
2019-03-01T21:40:52.274Z,87.78
2019-03-01T21:43:19.894Z,87.57
2019-03-01T21:45:46.610Z,86.84
2019-03-01T21:48:13.347Z,87.24
2019-03-01T21:50:42.413Z,86.46
2019-03-01T21:53:06.885Z,85.36
2019-03-01T21:55:33.611Z,86.33
2019-03-01T21:58:03.421Z,86.36
2019-03-01T22:00:29.983Z,86.45
2019-03-01T22:02:54.329Z,87.68
2019-03-01T22:05:20.666Z,87.01
2019-03-01T22:07:47.430Z,86.75
2019-03-01T22:10:14.168Z,87.39
2019-03-01T22:12:40.909Z,86.91
2019-03-01T22:15:10.774Z,87.19
2019-03-01T22:17:37.562Z,87.60
2019-03-01T22:20:05.741Z,87.84
2019-03-01T22:22:34.176Z,87.33
2019-03-01T22:24:58.662Z,87.45
2019-03-01T22:27:25.345Z,87.01
2019-03-01T22:29:51.669Z,88.62
2019-03-01T22:32:18.467Z,89.52
2019-03-01T22:34:45.201Z,89.13
2019-03-01T22:37:11.934Z,89.28
2019-03-01T22:39:38.675Z,90.28
2019-03-01T22:42:05.394Z,89.78
2019-03-01T22:44:33.377Z,89.46
2019-03-01T22:47:00.791Z,89.69
2019-03-01T22:49:28.566Z,89.58
2019-03-01T22:51:53.010Z,90.42
2019-03-01T22:54:19.111Z,89.90
2019-03-01T22:56:48.460Z,89.48
2019-03-01T22:59:12.683Z,89.46
2019-03-01T23:01:41.186Z,89.13
2019-03-01T23:04:07.919Z,88.45
2019-03-01T23:06:34.654Z,89.15
2019-03-01T23:09:01.458Z,89.06
2019-03-01T23:11:28.750Z,89.02
2019-03-01T23:13:55.755Z,88.47
2019-03-01T23:16:21.630Z,88.42
2019-03-01T23:18:56.345Z,87.79
2019-03-01T23:21:15.090Z,88.16
2019-03-01T23:23:42.013Z,88.03
2019-03-01T23:26:08.746Z,87.58
2019-03-01T23:28:35.487Z,88.19
2019-03-01T23:31:03.650Z,87.93
2019-03-01T23:33:31.626Z,87.72
2019-03-01T23:35:55.721Z,88.09
2019-03-01T23:38:22.474Z,87.44
2019-03-01T23:40:49.189Z,87.85
2019-03-01T23:43:15.986Z,87.58
2019-03-01T23:45:42.731Z,86.84
2019-03-01T23:48:10.683Z,86.97
2019-03-01T23:50:36.225Z,87.02
2019-03-01T23:53:02.958Z,86.64
2019-03-01T23:55:29.690Z,86.18
2019-03-01T23:58:05.540Z,87.08
